sensor_id;sensor_type;location;lat;lon;timestamp;temperature;humidity
9723;DHT22;4900;49.306;8.500;2022-12-07T00:00:47;4.99;79.84
9723;DHT22;4900;49.306;8.500;2022-12-07T00:03:53;4.84;79.71
9723;DHT22;4900;49.306;8.500;2022-12-07T00:06:56;4.73;79.93
9723;DHT22;4900;49.306;8.500;2022-12-07T00:09:59;4.67;79.93
9723;DHT22;4900;49.306;8.500;2022-12-07T00:13:03;4.61;80.08
9723;DHT22;4900;49.306;8.500;2022-12-07T00:16:08;4.59;80.35
9723;DHT22;4900;49.306;8.500;2022-12-07T00:19:13;4.60;80.52
9723;DHT22;4900;49.306;8.500;2022-12-07T00:22:17;4.64;80.83
9723;DHT22;4900;49.306;8.500;2022-12-07T00:25:20;4.67;81.07
9723;DHT22;4900;49.306;8.500;2022-12-07T00:28:23;4.73;81.26
9723;DHT22;4900;49.306;8.500;2022-12-07T00:31:28;4.76;81.52
9723;DHT22;4900;49.306;8.500;2022-12-07T00:34:32;4.78;81.81
9723;DHT22;4900;49.306;8.500;2022-12-07T00:37:35;4.85;82.01
9723;DHT22;4900;49.306;8.500;2022-12-07T00:40:37;4.89;82.16
9723;DHT22;4900;49.306;8.500;2022-12-07T00:43:42;4.89;82.14
9723;DHT22;4900;49.306;8.500;2022-12-07T00:46:45;4.92;82.11
9723;DHT22;4900;49.306;8.500;2022-12-07T00:49:48;4.91;82.17
9723;DHT22;4900;49.306;8.500;2022-12-07T00:52:51;4.94;82.23
9723;DHT22;4900;49.306;8.500;2022-12-07T00:55:54;4.94;82.31
9723;DHT22;4900;49.306;8.500;2022-12-07T00:59:03;4.97;82.47
9723;DHT22;4900;49.306;8.500;2022-12-07T01:02:06;5.01;82.46
9723;DHT22;4900;49.306;8.500;2022-12-07T01:05:09;5.04;82.44
9723;DHT22;4900;49.306;8.500;2022-12-07T01:08:12;5.08;82.40
9723;DHT22;4900;49.306;8.500;2022-12-07T01:11:18;5.11;82.39
9723;DHT22;4900;49.306;8.500;2022-12-07T01:14:21;5.12;82.38
9723;DHT22;4900;49.306;8.500;2022-12-07T01:17:24;5.11;82.37
9723;DHT22;4900;49.306;8.500;2022-12-07T01:20:27;5.11;82.33
9723;DHT22;4900;49.306;8.500;2022-12-07T01:23:30;5.11;82.34
9723;DHT22;4900;49.306;8.500;2022-12-07T01:26:34;5.12;82.34
9723;DHT22;4900;49.306;8.500;2022-12-07T01:29:37;5.13;82.34
9723;DHT22;4900;49.306;8.500;2022-12-07T01:32:40;5.16;82.30
9723;DHT22;4900;49.306;8.500;2022-12-07T01:35:43;5.15;82.24
9723;DHT22;4900;49.306;8.500;2022-12-07T01:38:47;5.16;82.26
9723;DHT22;4900;49.306;8.500;2022-12-07T01:41:51;5.15;82.23
9723;DHT22;4900;49.306;8.500;2022-12-07T01:48:38;5.13;82.31
9723;DHT22;4900;49.306;8.500;2022-12-07T01:51:43;5.13;82.36
9723;DHT22;4900;49.306;8.500;2022-12-07T01:54:49;5.18;82.40
9723;DHT22;4900;49.306;8.500;2022-12-07T01:57:54;5.19;82.51
9723;DHT22;4900;49.306;8.500;2022-12-07T02:00:58;5.19;82.58
9723;DHT22;4900;49.306;8.500;2022-12-07T02:04:01;5.19;82.56
9723;DHT22;4900;49.306;8.500;2022-12-07T02:07:05;5.23;82.56
9723;DHT22;4900;49.306;8.500;2022-12-07T02:10:28;5.23;82.63
9723;DHT22;4900;49.306;8.500;2022-12-07T02:13:35;5.22;82.70
9723;DHT22;4900;49.306;8.500;2022-12-07T02:20:18;5.23;82.67
9723;DHT22;4900;49.306;8.500;2022-12-07T02:23:40;5.27;82.60
9723;DHT22;4900;49.306;8.500;2022-12-07T02:30:28;5.22;82.47
9723;DHT22;4900;49.306;8.500;2022-12-07T02:33:37;5.23;82.43
9723;DHT22;4900;49.306;8.500;2022-12-07T02:36:49;5.19;82.30
9723;DHT22;4900;49.306;8.500;2022-12-07T02:40:18;5.15;82.14
9723;DHT22;4900;49.306;8.500;2022-12-07T02:43:26;5.08;81.98
9723;DHT22;4900;49.306;8.500;2022-12-07T02:46:32;4.99;81.96
9723;DHT22;4900;49.306;8.500;2022-12-07T02:49:38;4.94;81.77
9723;DHT22;4900;49.306;8.500;2022-12-07T02:52:42;4.87;81.60
9723;DHT22;4900;49.306;8.500;2022-12-07T02:55:45;4.77;81.60
9723;DHT22;4900;49.306;8.500;2022-12-07T03:05:44;4.64;81.94
9723;DHT22;4900;49.306;8.500;2022-12-07T03:09:04;4.63;81.95
9723;DHT22;4900;49.306;8.500;2022-12-07T03:12:14;4.56;82.07
9723;DHT22;4900;49.306;8.500;2022-12-07T03:19:10;4.59;82.49
9723;DHT22;4900;49.306;8.500;2022-12-07T03:22:15;4.56;82.62
9723;DHT22;4900;49.306;8.500;2022-12-07T03:25:20;4.59;82.84
9723;DHT22;4900;49.306;8.500;2022-12-07T03:28:28;4.61;82.91
9723;DHT22;4900;49.306;8.500;2022-12-07T03:31:38;4.63;82.98
9723;DHT22;4900;49.306;8.500;2022-12-07T03:34:58;4.69;83.07
9723;DHT22;4900;49.306;8.500;2022-12-07T03:38:18;4.70;83.00
9723;DHT22;4900;49.306;8.500;2022-12-07T03:41:25;4.73;82.89
9723;DHT22;4900;49.306;8.500;2022-12-07T03:44:29;4.78;82.87
9723;DHT22;4900;49.306;8.500;2022-12-07T03:47:43;4.78;82.88
9723;DHT22;4900;49.306;8.500;2022-12-07T03:50:56;4.81;82.85
9723;DHT22;4900;49.306;8.500;2022-12-07T03:54:21;4.80;82.75
9723;DHT22;4900;49.306;8.500;2022-12-07T03:57:26;4.81;82.76
9723;DHT22;4900;49.306;8.500;2022-12-07T04:00:31;4.85;82.73
9723;DHT22;4900;49.306;8.500;2022-12-07T04:03:35;4.84;82.78
9723;DHT22;4900;49.306;8.500;2022-12-07T04:06:37;4.85;82.72
9723;DHT22;4900;49.306;8.500;2022-12-07T04:09:40;4.85;82.75
9723;DHT22;4900;49.306;8.500;2022-12-07T04:12:43;4.89;82.70
9723;DHT22;4900;49.306;8.500;2022-12-07T04:15:46;4.89;82.62
9723;DHT22;4900;49.306;8.500;2022-12-07T04:18:49;4.88;82.55
9723;DHT22;4900;49.306;8.500;2022-12-07T04:21:51;4.91;82.51
9723;DHT22;4900;49.306;8.500;2022-12-07T04:24:54;4.89;82.45
9723;DHT22;4900;49.306;8.500;2022-12-07T04:27:57;4.85;82.45
9723;DHT22;4900;49.306;8.500;2022-12-07T04:31:00;4.89;82.35
9723;DHT22;4900;49.306;8.500;2022-12-07T04:34:04;4.91;82.25
9723;DHT22;4900;49.306;8.500;2022-12-07T04:37:08;4.95;82.16
9723;DHT22;4900;49.306;8.500;2022-12-07T04:40:11;4.94;82.05
9723;DHT22;4900;49.306;8.500;2022-12-07T04:43:16;4.92;82.15
9723;DHT22;4900;49.306;8.500;2022-12-07T04:46:19;4.94;82.06
9723;DHT22;4900;49.306;8.500;2022-12-07T04:49:24;4.94;82.00
9723;DHT22;4900;49.306;8.500;2022-12-07T04:52:27;4.98;81.95
9723;DHT22;4900;49.306;8.500;2022-12-07T04:55:29;4.92;81.88
9723;DHT22;4900;49.306;8.500;2022-12-07T04:58:32;4.94;81.90
9723;DHT22;4900;49.306;8.500;2022-12-07T05:01:35;4.98;81.79
9723;DHT22;4900;49.306;8.500;2022-12-07T05:04:38;4.95;81.84
9723;DHT22;4900;49.306;8.500;2022-12-07T05:07:41;4.95;81.80
9723;DHT22;4900;49.306;8.500;2022-12-07T05:10:44;4.94;81.75
9723;DHT22;4900;49.306;8.500;2022-12-07T05:13:46;4.97;81.69
9723;DHT22;4900;49.306;8.500;2022-12-07T05:16:50;5.01;81.59
9723;DHT22;4900;49.306;8.500;2022-12-07T05:19:54;4.98;81.58
9723;DHT22;4900;49.306;8.500;2022-12-07T05:22:57;5.04;81.49
9723;DHT22;4900;49.306;8.500;2022-12-07T05:26:01;4.99;81.41
9723;DHT22;4900;49.306;8.500;2022-12-07T05:29:04;5.05;81.35
9723;DHT22;4900;49.306;8.500;2022-12-07T05:32:07;5.06;81.27
9723;DHT22;4900;49.306;8.500;2022-12-07T05:35:10;5.02;81.21
9723;DHT22;4900;49.306;8.500;2022-12-07T05:38:13;5.01;81.20
9723;DHT22;4900;49.306;8.500;2022-12-07T05:41:18;5.02;81.16
9723;DHT22;4900;49.306;8.500;2022-12-07T05:44:42;5.04;81.09
9723;DHT22;4900;49.306;8.500;2022-12-07T05:47:45;4.99;81.06
9723;DHT22;4900;49.306;8.500;2022-12-07T05:50:49;5.01;80.97
9723;DHT22;4900;49.306;8.500;2022-12-07T05:53:52;5.01;80.78
9723;DHT22;4900;49.306;8.500;2022-12-07T05:56:56;4.98;80.73
9723;DHT22;4900;49.306;8.500;2022-12-07T05:59:59;5.01;80.64
9723;DHT22;4900;49.306;8.500;2022-12-07T06:03:02;4.98;80.48
9723;DHT22;4900;49.306;8.500;2022-12-07T06:06:05;4.99;80.40
9723;DHT22;4900;49.306;8.500;2022-12-07T06:09:08;5.02;80.28
9723;DHT22;4900;49.306;8.500;2022-12-07T06:12:11;5.02;80.18
9723;DHT22;4900;49.306;8.500;2022-12-07T06:15:37;5.02;80.19
9723;DHT22;4900;49.306;8.500;2022-12-07T06:18:40;4.99;80.26
9723;DHT22;4900;49.306;8.500;2022-12-07T06:21:43;5.04;80.17
9723;DHT22;4900;49.306;8.500;2022-12-07T06:24:46;5.04;80.21
9723;DHT22;4900;49.306;8.500;2022-12-07T06:27:49;5.02;80.23
9723;DHT22;4900;49.306;8.500;2022-12-07T06:30:59;5.04;80.18
9723;DHT22;4900;49.306;8.500;2022-12-07T06:34:05;5.05;80.18
9723;DHT22;4900;49.306;8.500;2022-12-07T06:37:08;5.04;80.11
9723;DHT22;4900;49.306;8.500;2022-12-07T06:40:11;5.05;80.11
9723;DHT22;4900;49.306;8.500;2022-12-07T06:43:15;5.09;80.05
9723;DHT22;4900;49.306;8.500;2022-12-07T06:46:18;5.05;80.01
9723;DHT22;4900;49.306;8.500;2022-12-07T06:49:20;5.09;80.02
9723;DHT22;4900;49.306;8.500;2022-12-07T06:52:24;5.09;79.85
9723;DHT22;4900;49.306;8.500;2022-12-07T06:55:27;5.08;79.87
9723;DHT22;4900;49.306;8.500;2022-12-07T06:58:30;5.08;79.81
9723;DHT22;4900;49.306;8.500;2022-12-07T07:01:34;5.06;79.80
9723;DHT22;4900;49.306;8.500;2022-12-07T07:04:38;5.08;79.70
9723;DHT22;4900;49.306;8.500;2022-12-07T07:07:40;5.09;79.64
9723;DHT22;4900;49.306;8.500;2022-12-07T07:10:43;5.08;79.67
9723;DHT22;4900;49.306;8.500;2022-12-07T07:13:47;5.09;79.69
9723;DHT22;4900;49.306;8.500;2022-12-07T07:16:50;5.15;79.57
9723;DHT22;4900;49.306;8.500;2022-12-07T07:19:53;5.16;79.49
9723;DHT22;4900;49.306;8.500;2022-12-07T07:22:56;5.12;79.54
9723;DHT22;4900;49.306;8.500;2022-12-07T07:25:59;5.16;79.45
9723;DHT22;4900;49.306;8.500;2022-12-07T07:29:02;5.19;79.38
9723;DHT22;4900;49.306;8.500;2022-12-07T07:32:05;5.20;79.40
9723;DHT22;4900;49.306;8.500;2022-12-07T07:35:08;5.23;79.37
9723;DHT22;4900;49.306;8.500;2022-12-07T07:38:11;5.25;79.35
9723;DHT22;4900;49.306;8.500;2022-12-07T07:41:14;5.27;79.38
9723;DHT22;4900;49.306;8.500;2022-12-07T07:44:17;5.29;79.28
9723;DHT22;4900;49.306;8.500;2022-12-07T07:47:20;5.33;79.23
9723;DHT22;4900;49.306;8.500;2022-12-07T07:50:23;5.36;79.23
9723;DHT22;4900;49.306;8.500;2022-12-07T07:53:26;5.36;79.20
9723;DHT22;4900;49.306;8.500;2022-12-07T07:56:30;5.43;79.10
9723;DHT22;4900;49.306;8.500;2022-12-07T07:59:33;5.42;79.13
9723;DHT22;4900;49.306;8.500;2022-12-07T08:02:36;5.51;79.01
9723;DHT22;4900;49.306;8.500;2022-12-07T08:05:39;5.57;78.92
9723;DHT22;4900;49.306;8.500;2022-12-07T08:08:42;5.59;78.83
9723;DHT22;4900;49.306;8.500;2022-12-07T08:11:45;5.60;78.81
9723;DHT22;4900;49.306;8.500;2022-12-07T08:14:48;5.68;78.55
9723;DHT22;4900;49.306;8.500;2022-12-07T08:17:52;5.77;78.37
9723;DHT22;4900;49.306;8.500;2022-12-07T08:21:01;5.78;78.34
9723;DHT22;4900;49.306;8.500;2022-12-07T08:24:05;5.88;78.20
9723;DHT22;4900;49.306;8.500;2022-12-07T08:27:08;5.88;78.14
9723;DHT22;4900;49.306;8.500;2022-12-07T08:30:12;6.01;78.07
9723;DHT22;4900;49.306;8.500;2022-12-07T08:33:18;6.08;77.82
9723;DHT22;4900;49.306;8.500;2022-12-07T08:36:22;6.09;77.80
9723;DHT22;4900;49.306;8.500;2022-12-07T08:39:28;6.12;77.79
9723;DHT22;4900;49.306;8.500;2022-12-07T08:42:34;6.19;77.64
9723;DHT22;4900;49.306;8.500;2022-12-07T08:45:43;6.15;77.79
9723;DHT22;4900;49.306;8.500;2022-12-07T08:48:54;6.15;77.63
9723;DHT22;4900;49.306;8.500;2022-12-07T08:51:58;6.22;77.68
9723;DHT22;4900;49.306;8.500;2022-12-07T08:55:03;6.27;77.50
9723;DHT22;4900;49.306;8.500;2022-12-07T08:58:07;6.37;77.56
9723;DHT22;4900;49.306;8.500;2022-12-07T09:01:10;6.47;77.38
9723;DHT22;4900;49.306;8.500;2022-12-07T09:04:13;6.55;77.21
9723;DHT22;4900;49.306;8.500;2022-12-07T09:07:16;6.63;77.35
9723;DHT22;4900;49.306;8.500;2022-12-07T09:10:19;6.67;76.87
9723;DHT22;4900;49.306;8.500;2022-12-07T09:13:22;6.82;76.77
9723;DHT22;4900;49.306;8.500;2022-12-07T09:16:25;6.82;76.62
9723;DHT22;4900;49.306;8.500;2022-12-07T09:19:29;6.99;76.51
9723;DHT22;4900;49.306;8.500;2022-12-07T09:22:32;7.07;76.38
9723;DHT22;4900;49.306;8.500;2022-12-07T09:25:36;7.16;76.20
9723;DHT22;4900;49.306;8.500;2022-12-07T09:28:39;7.28;75.54
9723;DHT22;4900;49.306;8.500;2022-12-07T09:31:42;7.44;75.14
9723;DHT22;4900;49.306;8.500;2022-12-07T09:34:45;7.61;74.80
9723;DHT22;4900;49.306;8.500;2022-12-07T09:37:48;7.63;74.38
9723;DHT22;4900;49.306;8.500;2022-12-07T09:40:54;7.72;74.02
9723;DHT22;4900;49.306;8.500;2022-12-07T09:44:04;7.93;73.68
9723;DHT22;4900;49.306;8.500;2022-12-07T09:47:09;8.14;73.46
9723;DHT22;4900;49.306;8.500;2022-12-07T09:50:15;8.34;73.18
9723;DHT22;4900;49.306;8.500;2022-12-07T09:53:33;8.45;72.98
9723;DHT22;4900;49.306;8.500;2022-12-07T09:56:37;8.55;72.80
9723;DHT22;4900;49.306;8.500;2022-12-07T09:59:40;8.65;72.40
9723;DHT22;4900;49.306;8.500;2022-12-07T10:02:50;8.77;71.99
9723;DHT22;4900;49.306;8.500;2022-12-07T10:05:55;8.82;71.85
9723;DHT22;4900;49.306;8.500;2022-12-07T10:09:00;8.95;71.49
9723;DHT22;4900;49.306;8.500;2022-12-07T10:15:08;9.08;70.99
9723;DHT22;4900;49.306;8.500;2022-12-07T10:18:39;9.17;71.13
9723;DHT22;4900;49.306;8.500;2022-12-07T10:22:13;9.16;70.70
9723;DHT22;4900;49.306;8.500;2022-12-07T10:25:19;9.32;70.39
9723;DHT22;4900;49.306;8.500;2022-12-07T10:28:23;9.42;70.08
9723;DHT22;4900;49.306;8.500;2022-12-07T10:31:25;9.46;70.12
9723;DHT22;4900;49.306;8.500;2022-12-07T10:34:32;9.62;69.91
9723;DHT22;4900;49.306;8.500;2022-12-07T10:37:40;9.85;69.74
9723;DHT22;4900;49.306;8.500;2022-12-07T10:40:43;9.89;69.22
9723;DHT22;4900;49.306;8.500;2022-12-07T10:43:54;10.00;69.19
9723;DHT22;4900;49.306;8.500;2022-12-07T10:47:27;9.91;68.38
9723;DHT22;4900;49.306;8.500;2022-12-07T10:54:13;10.20;67.37
9723;DHT22;4900;49.306;8.500;2022-12-07T10:57:33;10.21;67.06
9723;DHT22;4900;49.306;8.500;2022-12-07T11:17:51;10.62;65.68
9723;DHT22;4900;49.306;8.500;2022-12-07T11:24:20;10.62;65.65
9723;DHT22;4900;49.306;8.500;2022-12-07T11:28:02;10.83;65.47
9723;DHT22;4900;49.306;8.500;2022-12-07T11:31:17;10.83;65.43
9723;DHT22;4900;49.306;8.500;2022-12-07T11:34:26;10.84;65.89
9723;DHT22;4900;49.306;8.500;2022-12-07T11:37:36;10.96;65.66
9723;DHT22;4900;49.306;8.500;2022-12-07T11:40:42;11.18;65.19
9723;DHT22;4900;49.306;8.500;2022-12-07T11:47:04;11.21;64.03
9723;DHT22;4900;49.306;8.500;2022-12-07T11:53:42;10.81;64.45
9723;DHT22;4900;49.306;8.500;2022-12-07T11:56:49;10.41;65.17
9723;DHT22;4900;49.306;8.500;2022-12-07T11:59:57;10.11;65.78
9723;DHT22;4900;49.306;8.500;2022-12-07T12:03:09;9.90;66.44
9723;DHT22;4900;49.306;8.500;2022-12-07T12:06:14;9.59;67.47
9723;DHT22;4900;49.306;8.500;2022-12-07T12:09:34;9.36;68.08
9723;DHT22;4900;49.306;8.500;2022-12-07T12:23:22;8.85;69.69
9723;DHT22;4900;49.306;8.500;2022-12-07T12:26:29;9.08;69.55
9723;DHT22;4900;49.306;8.500;2022-12-07T12:29:37;9.10;69.47
9723;DHT22;4900;49.306;8.500;2022-12-07T12:32:42;9.16;69.41
9723;DHT22;4900;49.306;8.500;2022-12-07T12:39:17;8.99;69.76
9723;DHT22;4900;49.306;8.500;2022-12-07T12:42:51;8.71;70.23
9723;DHT22;4900;49.306;8.500;2022-12-07T12:49:39;8.48;70.87
9723;DHT22;4900;49.306;8.500;2022-12-07T12:59:22;8.52;71.55
9723;DHT22;4900;49.306;8.500;2022-12-07T13:02:28;8.68;71.34
9723;DHT22;4900;49.306;8.500;2022-12-07T13:05:31;8.85;71.05
9723;DHT22;4900;49.306;8.500;2022-12-07T13:08:40;8.95;70.68
9723;DHT22;4900;49.306;8.500;2022-12-07T13:11:44;8.96;70.50
9723;DHT22;4900;49.306;8.500;2022-12-07T13:14:57;8.97;70.34
9723;DHT22;4900;49.306;8.500;2022-12-07T13:18:04;8.95;70.34
9723;DHT22;4900;49.306;8.500;2022-12-07T13:24:12;8.80;70.74
9723;DHT22;4900;49.306;8.500;2022-12-07T13:27:17;8.79;70.74
9723;DHT22;4900;49.306;8.500;2022-12-07T13:30:21;8.77;70.95
9723;DHT22;4900;49.306;8.500;2022-12-07T13:33:27;8.75;71.06
9723;DHT22;4900;49.306;8.500;2022-12-07T13:36:38;8.79;71.26
9723;DHT22;4900;49.306;8.500;2022-12-07T13:40:03;8.77;71.35
9723;DHT22;4900;49.306;8.500;2022-12-07T13:43:18;8.89;71.15
9723;DHT22;4900;49.306;8.500;2022-12-07T13:46:42;8.95;70.81
9723;DHT22;4900;49.306;8.500;2022-12-07T13:49:52;8.97;70.67
9723;DHT22;4900;49.306;8.500;2022-12-07T13:52:58;8.88;70.39
9723;DHT22;4900;49.306;8.500;2022-12-07T13:56:02;8.79;70.19
9723;DHT22;4900;49.306;8.500;2022-12-07T13:59:25;8.69;69.64
9723;DHT22;4900;49.306;8.500;2022-12-07T14:02:31;8.61;69.47
9723;DHT22;4900;49.306;8.500;2022-12-07T14:05:35;8.65;69.47
9723;DHT22;4900;49.306;8.500;2022-12-07T14:08:39;8.68;69.65
9723;DHT22;4900;49.306;8.500;2022-12-07T14:11:42;8.62;69.87
9723;DHT22;4900;49.306;8.500;2022-12-07T14:14:49;8.61;69.91
9723;DHT22;4900;49.306;8.500;2022-12-07T14:17:54;8.61;69.67
9723;DHT22;4900;49.306;8.500;2022-12-07T14:21:16;8.49;69.78
9723;DHT22;4900;49.306;8.500;2022-12-07T14:24:20;8.49;69.69
9723;DHT22;4900;49.306;8.500;2022-12-07T14:27:24;8.31;69.79
9723;DHT22;4900;49.306;8.500;2022-12-07T14:30:34;8.34;69.85
9723;DHT22;4900;49.306;8.500;2022-12-07T14:33:38;8.28;69.86
9723;DHT22;4900;49.306;8.500;2022-12-07T14:36:41;8.30;69.76
9723;DHT22;4900;49.306;8.500;2022-12-07T14:39:43;8.18;69.87
9723;DHT22;4900;49.306;8.500;2022-12-07T14:42:50;8.16;69.97
9723;DHT22;4900;49.306;8.500;2022-12-07T14:45:54;8.12;70.00
9723;DHT22;4900;49.306;8.500;2022-12-07T14:48:56;8.05;70.32
9723;DHT22;4900;49.306;8.500;2022-12-07T14:52:00;8.00;70.58
9723;DHT22;4900;49.306;8.500;2022-12-07T14:55:03;7.99;70.33
9723;DHT22;4900;49.306;8.500;2022-12-07T14:58:07;7.93;70.52
9723;DHT22;4900;49.306;8.500;2022-12-07T15:01:14;7.78;71.03
9723;DHT22;4900;49.306;8.500;2022-12-07T15:04:17;7.78;71.06
9723;DHT22;4900;49.306;8.500;2022-12-07T15:07:21;7.72;71.24
9723;DHT22;4900;49.306;8.500;2022-12-07T15:10:28;7.69;71.28
9723;DHT22;4900;49.306;8.500;2022-12-07T15:13:33;7.69;71.44
9723;DHT22;4900;49.306;8.500;2022-12-07T15:16:54;7.65;71.79
9723;DHT22;4900;49.306;8.500;2022-12-07T15:19:57;7.61;72.05
9723;DHT22;4900;49.306;8.500;2022-12-07T15:23:01;7.51;72.32
9723;DHT22;4900;49.306;8.500;2022-12-07T15:26:04;7.40;72.49
9723;DHT22;4900;49.306;8.500;2022-12-07T15:29:07;7.38;72.55
9723;DHT22;4900;49.306;8.500;2022-12-07T15:32:11;7.35;72.63
9723;DHT22;4900;49.306;8.500;2022-12-07T15:35:14;7.33;72.49
9723;DHT22;4900;49.306;8.500;2022-12-07T15:38:16;7.33;72.52
9723;DHT22;4900;49.306;8.500;2022-12-07T15:41:20;7.20;72.76
9723;DHT22;4900;49.306;8.500;2022-12-07T15:44:23;7.10;72.72
9723;DHT22;4900;49.306;8.500;2022-12-07T15:47:45;7.09;72.63
9723;DHT22;4900;49.306;8.500;2022-12-07T15:50:48;7.02;72.69
9723;DHT22;4900;49.306;8.500;2022-12-07T15:53:52;7.00;72.48
9723;DHT22;4900;49.306;8.500;2022-12-07T15:56:56;6.95;72.53
9723;DHT22;4900;49.306;8.500;2022-12-07T15:59:59;6.92;72.50
9723;DHT22;4900;49.306;8.500;2022-12-07T16:03:02;6.91;72.59
9723;DHT22;4900;49.306;8.500;2022-12-07T16:06:05;6.88;72.62
9723;DHT22;4900;49.306;8.500;2022-12-07T16:09:09;6.82;72.58
9723;DHT22;4900;49.306;8.500;2022-12-07T16:12:13;6.79;72.65
9723;DHT22;4900;49.306;8.500;2022-12-07T16:15:16;6.81;72.68
9723;DHT22;4900;49.306;8.500;2022-12-07T16:18:19;6.77;72.55
9723;DHT22;4900;49.306;8.500;2022-12-07T16:21:22;6.74;73.02
9723;DHT22;4900;49.306;8.500;2022-12-07T16:24:25;6.72;73.36
9723;DHT22;4900;49.306;8.500;2022-12-07T16:27:29;6.74;73.64
9723;DHT22;4900;49.306;8.500;2022-12-07T16:30:32;6.70;74.03
9723;DHT22;4900;49.306;8.500;2022-12-07T16:33:37;6.68;74.20
9723;DHT22;4900;49.306;8.500;2022-12-07T16:36:40;6.68;74.37
9723;DHT22;4900;49.306;8.500;2022-12-07T16:39:43;6.64;74.74
9723;DHT22;4900;49.306;8.500;2022-12-07T16:42:46;6.55;75.01
9723;DHT22;4900;49.306;8.500;2022-12-07T16:45:49;6.51;75.47
9723;DHT22;4900;49.306;8.500;2022-12-07T16:48:53;6.51;75.50
9723;DHT22;4900;49.306;8.500;2022-12-07T16:51:55;6.47;75.65
9723;DHT22;4900;49.306;8.500;2022-12-07T16:54:59;6.45;75.75
9723;DHT22;4900;49.306;8.500;2022-12-07T16:58:02;6.41;75.95
9723;DHT22;4900;49.306;8.500;2022-12-07T17:01:13;6.43;75.87
9723;DHT22;4900;49.306;8.500;2022-12-07T17:04:17;6.37;75.99
9723;DHT22;4900;49.306;8.500;2022-12-07T17:07:20;6.36;76.07
9723;DHT22;4900;49.306;8.500;2022-12-07T17:10:24;6.33;76.26
9723;DHT22;4900;49.306;8.500;2022-12-07T17:13:27;6.29;76.30
9723;DHT22;4900;49.306;8.500;2022-12-07T17:16:49;6.25;76.47
9723;DHT22;4900;49.306;8.500;2022-12-07T17:19:52;6.26;76.67
9723;DHT22;4900;49.306;8.500;2022-12-07T17:22:55;6.20;76.76
9723;DHT22;4900;49.306;8.500;2022-12-07T17:26:24;6.20;77.02
9723;DHT22;4900;49.306;8.500;2022-12-07T17:29:27;6.19;76.99
9723;DHT22;4900;49.306;8.500;2022-12-07T17:32:30;6.20;76.97
9723;DHT22;4900;49.306;8.500;2022-12-07T17:35:34;6.17;77.02
9723;DHT22;4900;49.306;8.500;2022-12-07T17:38:37;6.16;77.13
9723;DHT22;4900;49.306;8.500;2022-12-07T17:41:40;6.15;77.07
9723;DHT22;4900;49.306;8.500;2022-12-07T17:45:03;6.12;77.12
9723;DHT22;4900;49.306;8.500;2022-12-07T17:48:06;6.10;77.22
9723;DHT22;4900;49.306;8.500;2022-12-07T17:51:09;6.05;77.29
9723;DHT22;4900;49.306;8.500;2022-12-07T17:54:32;6.10;77.11
9723;DHT22;4900;49.306;8.500;2022-12-07T17:57:34;5.99;77.24
9723;DHT22;4900;49.306;8.500;2022-12-07T18:00:37;6.03;77.22
9723;DHT22;4900;49.306;8.500;2022-12-07T18:03:41;6.03;77.15
9723;DHT22;4900;49.306;8.500;2022-12-07T18:06:44;6.01;77.19
9723;DHT22;4900;49.306;8.500;2022-12-07T18:09:47;6.01;77.13
9723;DHT22;4900;49.306;8.500;2022-12-07T18:12:50;5.99;77.14
9723;DHT22;4900;49.306;8.500;2022-12-07T18:16:21;5.94;77.14
9723;DHT22;4900;49.306;8.500;2022-12-07T18:19:28;5.89;77.26
9723;DHT22;4900;49.306;8.500;2022-12-07T18:22:32;5.94;77.08
9723;DHT22;4900;49.306;8.500;2022-12-07T18:25:34;5.88;76.99
9723;DHT22;4900;49.306;8.500;2022-12-07T18:28:38;5.84;77.14
9723;DHT22;4900;49.306;8.500;2022-12-07T18:31:41;5.79;77.23
9723;DHT22;4900;49.306;8.500;2022-12-07T18:34:44;5.74;77.23
9723;DHT22;4900;49.306;8.500;2022-12-07T18:37:47;5.79;77.04
9723;DHT22;4900;49.306;8.500;2022-12-07T18:40:50;5.71;77.11
9723;DHT22;4900;49.306;8.500;2022-12-07T18:43:53;5.73;77.00
9723;DHT22;4900;49.306;8.500;2022-12-07T18:46:56;5.68;76.96
9723;DHT22;4900;49.306;8.500;2022-12-07T18:49:59;5.70;77.04
9723;DHT22;4900;49.306;8.500;2022-12-07T18:53:04;5.68;77.19
9723;DHT22;4900;49.306;8.500;2022-12-07T18:56:11;5.67;77.33
9723;DHT22;4900;49.306;8.500;2022-12-07T18:59:14;5.64;77.26
9723;DHT22;4900;49.306;8.500;2022-12-07T19:02:36;5.63;77.21
9723;DHT22;4900;49.306;8.500;2022-12-07T19:05:39;5.63;77.20
9723;DHT22;4900;49.306;8.500;2022-12-07T19:08:42;5.63;77.13
9723;DHT22;4900;49.306;8.500;2022-12-07T19:11:45;5.59;77.26
9723;DHT22;4900;49.306;8.500;2022-12-07T19:14:51;5.54;77.43
9723;DHT22;4900;49.306;8.500;2022-12-07T19:17:56;5.54;77.45
9723;DHT22;4900;49.306;8.500;2022-12-07T19:21:02;5.51;77.52
9723;DHT22;4900;49.306;8.500;2022-12-07T19:24:06;5.51;77.68
9723;DHT22;4900;49.306;8.500;2022-12-07T19:27:10;5.47;77.74
9723;DHT22;4900;49.306;8.500;2022-12-07T19:30:14;5.47;77.80
9723;DHT22;4900;49.306;8.500;2022-12-07T19:33:17;5.44;77.87
9723;DHT22;4900;49.306;8.500;2022-12-07T19:36:20;5.39;78.05
9723;DHT22;4900;49.306;8.500;2022-12-07T19:39:23;5.36;78.19
9723;DHT22;4900;49.306;8.500;2022-12-07T19:42:26;5.39;78.16
9723;DHT22;4900;49.306;8.500;2022-12-07T19:45:29;5.37;78.21
9723;DHT22;4900;49.306;8.500;2022-12-07T19:48:34;5.36;78.28
9723;DHT22;4900;49.306;8.500;2022-12-07T19:51:37;5.30;78.39
9723;DHT22;4900;49.306;8.500;2022-12-07T19:54:40;5.29;78.43
9723;DHT22;4900;49.306;8.500;2022-12-07T19:57:43;5.27;78.51
9723;DHT22;4900;49.306;8.500;2022-12-07T20:00:46;5.27;78.43
9723;DHT22;4900;49.306;8.500;2022-12-07T20:03:49;5.20;78.54
9723;DHT22;4900;49.306;8.500;2022-12-07T20:06:54;5.19;78.68
9723;DHT22;4900;49.306;8.500;2022-12-07T20:09:57;5.19;78.68
9723;DHT22;4900;49.306;8.500;2022-12-07T20:13:01;5.18;78.70
9723;DHT22;4900;49.306;8.500;2022-12-07T20:16:23;5.15;78.72
9723;DHT22;4900;49.306;8.500;2022-12-07T20:19:27;5.12;78.79
9723;DHT22;4900;49.306;8.500;2022-12-07T20:22:30;5.13;78.80
9723;DHT22;4900;49.306;8.500;2022-12-07T20:25:36;5.13;78.76
9723;DHT22;4900;49.306;8.500;2022-12-07T20:28:39;5.11;78.97
9723;DHT22;4900;49.306;8.500;2022-12-07T20:31:43;5.09;79.10
9723;DHT22;4900;49.306;8.500;2022-12-07T20:34:46;5.08;79.30
9723;DHT22;4900;49.306;8.500;2022-12-07T20:37:50;5.09;79.37
9723;DHT22;4900;49.306;8.500;2022-12-07T20:40:59;5.08;79.33
9723;DHT22;4900;49.306;8.500;2022-12-07T20:44:02;5.08;79.41
9723;DHT22;4900;49.306;8.500;2022-12-07T20:47:06;5.08;79.43
9723;DHT22;4900;49.306;8.500;2022-12-07T20:50:09;5.09;79.37
9723;DHT22;4900;49.306;8.500;2022-12-07T20:53:13;5.08;79.39
9723;DHT22;4900;49.306;8.500;2022-12-07T20:56:36;5.13;79.36
9723;DHT22;4900;49.306;8.500;2022-12-07T20:59:40;5.13;79.32
9723;DHT22;4900;49.306;8.500;2022-12-07T21:02:43;5.13;79.17
9723;DHT22;4900;49.306;8.500;2022-12-07T21:05:46;5.15;79.10
9723;DHT22;4900;49.306;8.500;2022-12-07T21:08:50;5.16;79.01
9723;DHT22;4900;49.306;8.500;2022-12-07T21:11:54;5.18;79.00
9723;DHT22;4900;49.306;8.500;2022-12-07T21:14:57;5.18;78.83
9723;DHT22;4900;49.306;8.500;2022-12-07T21:18:00;5.13;78.64
9723;DHT22;4900;49.306;8.500;2022-12-07T21:21:05;5.11;78.67
9723;DHT22;4900;49.306;8.500;2022-12-07T21:24:09;5.12;78.67
9723;DHT22;4900;49.306;8.500;2022-12-07T21:27:13;5.15;78.55
9723;DHT22;4900;49.306;8.500;2022-12-07T21:30:16;5.16;78.27
9723;DHT22;4900;49.306;8.500;2022-12-07T21:33:20;5.12;78.33
9723;DHT22;4900;49.306;8.500;2022-12-07T21:36:24;5.11;78.38
9723;DHT22;4900;49.306;8.500;2022-12-07T21:39:27;5.13;78.15
9723;DHT22;4900;49.306;8.500;2022-12-07T21:42:30;5.13;78.22
9723;DHT22;4900;49.306;8.500;2022-12-07T21:45:33;5.09;78.25
9723;DHT22;4900;49.306;8.500;2022-12-07T21:48:36;5.12;78.16
9723;DHT22;4900;49.306;8.500;2022-12-07T21:51:41;5.12;78.21
9723;DHT22;4900;49.306;8.500;2022-12-07T21:54:44;5.11;78.14